< < Back
Terminal Aerodrome Forecast


Current Version              Previous Versions:   1  2  3  4  5  6  7  8  9  

Terminal Aerodrome Forecast

370
FTAK31 PAJN 121750
TAFAGS
TAF
PAGS 121750Z 1218/1318 10005KT P6SM -SHRA SCT025 BKN070
     FM122000 12008KT P6SM VCSH BKN070
     FM130300 10004KT P6SM VCSH BKN040 OVC070
     FM130900 VRB03KT P6SM VCSH BKN040 OVC060
     FM131300 34004KT P6SM VCSH OVC050
     FM131600 VRB03KT P6SM -SHRA SCT025 OVC040
      AMD LTD TO CLD VIS AND WIND=

Latest METAR

941
SAUS70 KWBC 121800
MTRAGS
METAR KAGS 121753Z 35003KT 10SM CLR 10/02 A3008 RMK AO2 SLP187 T01000022
10106 20028 58020


USA.gov is the U.S. government's official web portal to all federal, state and local government web resources and services.